Time;durP1;ratioP1;P1;durP2;ratioP2;P2;SDS_P1;SDS_P2;PMS_P1;PMS_P2;Temp;Humidity;BMP_temperature;BMP_pressure;BME280_temperature;BME280_humidity;BME280_pressure;Samples;Min_cycle;Max_cycle;Signal;HPM_P1;HPM_P2
2021/12/07 00:00:50;;;;;;;17.88;7.63;;;;;;;;;;4232026;28;20140;-81
2021/12/07 00:02:51;;;;;;;19.88;8.18;;;;;;;;;;4249463;27;20043;-81
2021/12/07 00:04:52;;;;;;;20.40;7.57;;;;;;;;;;4214750;28;20396;-81
2021/12/07 00:06:53;;;;;;;19.65;7.85;;;;;;;;;;4231310;28;20052;-80
2021/12/07 00:08:56;;;;;;;13.20;6.55;;;;;;;;;;4250209;27;20047;-80
2021/12/07 00:10:58;;;;;;;15.35;7.57;;;;;;;;;;4249965;27;20096;-80
2021/12/07 00:12:59;;;;;;;14.50;7.05;;;;;;;;;;4249939;27;20050;-80
2021/12/07 00:15:03;;;;;;;17.92;6.85;;;;;;;;;;4231472;28;20384;-80
2021/12/07 00:17:08;;;;;;;19.45;7.47;;;;;;;;;;4260321;27;20082;-80
2021/12/07 00:19:10;;;;;;;20.13;7.10;;;;;;;;;;4231406;28;20359;-81
2021/12/07 00:21:11;;;;;;;17.17;7.63;;;;;;;;;;4261260;27;20114;-81
2021/12/07 00:23:12;;;;;;;19.52;7.75;;;;;;;;;;4252636;27;20111;-81
2021/12/07 00:25:13;;;;;;;16.52;7.05;;;;;;;;;;4248516;27;20106;-81
2021/12/07 00:27:14;;;;;;;16.65;7.38;;;;;;;;;;4248492;27;20050;-81
2021/12/07 00:29:16;;;;;;;18.38;7.55;;;;;;;;;;4231214;28;20043;-81
2021/12/07 00:31:35;;;;;;;16.10;6.65;;;;;;;;;;4248101;27;20043;-81
2021/12/07 00:33:53;;;;;;;16.05;6.60;;;;;;;;;;4248355;27;20388;-81
2021/12/07 00:35:55;;;;;;;16.90;7.60;;;;;;;;;;4230740;28;20507;-81
2021/12/07 00:37:57;;;;;;;17.48;7.38;;;;;;;;;;4248092;27;20046;-81
2021/12/07 00:39:59;;;;;;;17.90;7.28;;;;;;;;;;4266571;27;20043;-81
2021/12/07 00:42:01;;;;;;;16.17;6.97;;;;;;;;;;4266527;27;20047;-81
2021/12/07 00:44:03;;;;;;;17.63;6.70;;;;;;;;;;4266754;27;20042;-81
2021/12/07 00:46:08;;;;;;;13.98;6.30;;;;;;;;;;4265617;27;20461;-81
2021/12/07 00:48:09;;;;;;;16.10;7.30;;;;;;;;;;4254882;27;20051;-81
2021/12/07 00:50:11;;;;;;;16.70;6.95;;;;;;;;;;4231220;28;20104;-81
2021/12/07 00:52:12;;;;;;;14.52;6.20;;;;;;;;;;4248623;27;20039;-81
2021/12/07 00:54:14;;;;;;;15.45;6.10;;;;;;;;;;4231262;28;20055;-81
2021/12/07 00:56:16;;;;;;;17.75;6.70;;;;;;;;;;4231661;28;20125;-81
2021/12/07 00:58:22;;;;;;;15.00;6.75;;;;;;;;;;4249230;27;20043;-81
2021/12/07 01:00:25;;;;;;;13.30;5.93;;;;;;;;;;4249842;27;20058;-80
2021/12/07 01:02:27;;;;;;;15.60;6.22;;;;;;;;;;4231433;28;20122;-80
2021/12/07 01:04:29;;;;;;;18.75;7.05;;;;;;;;;;4231579;28;20047;-80
2021/12/07 01:06:44;;;;;;;15.07;6.55;;;;;;;;;;4230729;28;20478;-80
2021/12/07 01:24:56;;;;;;;12.93;5.32;;;;;;;;;;4249492;27;20419;-81
2021/12/07 01:26:58;;;;;;;16.73;6.30;;;;;;;;;;4231553;28;20130;-81
2021/12/07 01:29:00;;;;;;;13.63;6.18;;;;;;;;;;4249501;27;20050;-81
2021/12/07 01:36:16;;;;;;;15.73;6.50;;;;;;;;;;4263237;27;20050;-81
2021/12/07 01:47:46;;;;;;;14.77;5.70;;;;;;;;;;4249282;27;20047;-81
2021/12/07 01:52:06;;;;;;;15.27;5.95;;;;;;;;;;4248989;27;20043;-81
2021/12/07 02:01:09;;;;;;;13.85;5.93;;;;;;;;;;4231070;28;20071;-81
2021/12/07 02:03:11;;;;;;;14.85;6.93;;;;;;;;;;4249473;28;20047;-81
2021/12/07 02:05:13;;;;;;;13.80;6.28;;;;;;;;;;4249044;27;20050;-81
2021/12/07 02:07:15;;;;;;;12.50;5.65;;;;;;;;;;4231263;28;20089;-81
2021/12/07 02:09:16;;;;;;;13.23;5.25;;;;;;;;;;4214769;28;20047;-81
2021/12/07 02:11:17;;;;;;;13.52;6.22;;;;;;;;;;4231035;28;20043;-81
2021/12/07 02:15:33;;;;;;;13.48;5.63;;;;;;;;;;4234572;28;20059;-81
2021/12/07 02:17:34;;;;;;;14.23;6.25;;;;;;;;;;4266506;27;20038;-81
2021/12/07 02:19:37;;;;;;;11.43;5.13;;;;;;;;;;4248039;28;20139;-81
2021/12/07 02:21:39;;;;;;;13.18;5.55;;;;;;;;;;4239004;28;20149;-81
2021/12/07 02:23:40;;;;;;;10.13;5.18;;;;;;;;;;4230769;28;20043;-81
2021/12/07 02:25:42;;;;;;;14.98;5.28;;;;;;;;;;4231913;28;20627;-81
2021/12/07 02:27:45;;;;;;;11.65;5.32;;;;;;;;;;4253102;27;20571;-81
2021/12/07 02:29:46;;;;;;;14.13;6.20;;;;;;;;;;4217494;28;20103;-81
2021/12/07 02:31:47;;;;;;;14.07;5.30;;;;;;;;;;4234802;28;20059;-81
2021/12/07 02:33:50;;;;;;;14.93;5.95;;;;;;;;;;4234589;28;20538;-82
2021/12/07 02:35:52;;;;;;;13.88;6.32;;;;;;;;;;4234502;28;20042;-81
2021/12/07 02:37:55;;;;;;;13.52;5.68;;;;;;;;;;4217605;28;20482;-81
2021/12/07 02:39:57;;;;;;;12.43;5.40;;;;;;;;;;4252825;27;20051;-81
2021/12/07 02:41:59;;;;;;;10.68;4.80;;;;;;;;;;4234373;28;20075;-81
2021/12/07 02:44:00;;;;;;;11.35;5.00;;;;;;;;;;4235545;28;20044;-81
2021/12/07 02:46:02;;;;;;;11.68;5.32;;;;;;;;;;4252989;27;20475;-81
2021/12/07 02:48:04;;;;;;;13.15;5.78;;;;;;;;;;4234447;28;20043;-81
2021/12/07 02:50:05;;;;;;;14.70;5.57;;;;;;;;;;4252981;27;20051;-81
2021/12/07 02:52:06;;;;;;;11.40;5.40;;;;;;;;;;4252483;27;20461;-81
2021/12/07 02:54:07;;;;;;;13.32;6.38;;;;;;;;;;4234180;28;20043;-81
2021/12/07 02:56:10;;;;;;;12.80;5.68;;;;;;;;;;4234171;28;20046;-81
2021/12/07 02:58:11;;;;;;;13.48;5.95;;;;;;;;;;4234592;28;20074;-81
2021/12/07 03:00:17;;;;;;;15.70;5.93;;;;;;;;;;4252378;27;20053;-81
2021/12/07 03:02:21;;;;;;;11.68;5.18;;;;;;;;;;4234325;28;20047;-81
2021/12/07 03:04:27;;;;;;;12.70;5.25;;;;;;;;;;4257321;27;20057;-81
2021/12/07 03:06:45;;;;;;;12.50;5.45;;;;;;;;;;4270138;27;20117;-81
2021/12/07 03:27:36;;;;;;;14.40;5.93;;;;;;;;;;4252150;27;20051;-81
2021/12/07 03:29:38;;;;;;;12.07;5.47;;;;;;;;;;4249443;27;20059;-81
2021/12/07 03:31:39;;;;;;;13.13;6.28;;;;;;;;;;4269285;27;20502;-81
2021/12/07 03:33:41;;;;;;;11.18;5.43;;;;;;;;;;4269170;27;20026;-81
2021/12/07 03:35:42;;;;;;;12.48;5.75;;;;;;;;;;4217401;28;20052;-81
2021/12/07 03:37:44;;;;;;;10.90;4.97;;;;;;;;;;4231658;28;20043;-81
2021/12/07 03:39:46;;;;;;;10.60;5.50;;;;;;;;;;4233832;28;20511;-81
2021/12/07 03:41:49;;;;;;;10.65;5.30;;;;;;;;;;4251873;27;20467;-81
2021/12/07 03:43:51;;;;;;;13.18;5.50;;;;;;;;;;4233556;28;20178;-81
2021/12/07 03:45:53;;;;;;;13.05;5.25;;;;;;;;;;4251872;27;20474;-80
2021/12/07 03:47:55;;;;;;;12.48;5.95;;;;;;;;;;4233401;28;20429;-80
2021/12/07 03:49:57;;;;;;;13.30;5.80;;;;;;;;;;4233580;28;20039;-80
2021/12/07 03:51:59;;;;;;;13.18;5.68;;;;;;;;;;4251188;27;20372;-80
2021/12/07 03:54:00;;;;;;;13.70;5.53;;;;;;;;;;4233572;28;20048;-81
2021/12/07 03:56:03;;;;;;;12.52;5.65;;;;;;;;;;4233622;28;20044;-81
2021/12/07 03:58:05;;;;;;;12.52;5.00;;;;;;;;;;4251612;27;20047;-81
2021/12/07 04:00:07;;;;;;;12.00;5.65;;;;;;;;;;4233916;27;20047;-81
2021/12/07 04:02:09;;;;;;;10.25;4.60;;;;;;;;;;4252352;27;20043;-81
2021/12/07 04:04:12;;;;;;;13.48;5.45;;;;;;;;;;4232740;28;20036;-81
2021/12/07 04:06:14;;;;;;;12.40;5.40;;;;;;;;;;4233108;28;20040;-81
2021/12/07 04:08:19;;;;;;;12.40;4.95;;;;;;;;;;4233345;28;20050;-81
2021/12/07 04:10:25;;;;;;;11.88;4.90;;;;;;;;;;4233135;28;20096;-81
2021/12/07 04:12:27;;;;;;;10.40;5.47;;;;;;;;;;4232788;28;20052;-81
2021/12/07 04:14:30;;;;;;;13.25;5.03;;;;;;;;;;4233595;28;20430;-81
2021/12/07 04:16:32;;;;;;;12.68;5.60;;;;;;;;;;4251161;27;20168;-81
2021/12/07 04:18:34;;;;;;;14.70;4.97;;;;;;;;;;4215738;28;20048;-81
2021/12/07 04:20:36;;;;;;;11.20;5.07;;;;;;;;;;4232770;28;20070;-81
2021/12/07 04:22:39;;;;;;;9.70;5.07;;;;;;;;;;4249427;27;20092;-81
2021/12/07 04:24:40;;;;;;;11.35;5.07;;;;;;;;;;4252976;27;20047;-81
2021/12/07 04:26:42;;;;;;;11.48;4.60;;;;;;;;;;4233341;28;20483;-81
2021/12/07 04:28:45;;;;;;;10.63;4.90;;;;;;;;;;4231674;28;20043;-81
2021/12/07 04:30:47;;;;;;;11.70;5.68;;;;;;;;;;4232901;28;20116;-81
2021/12/07 04:32:48;;;;;;;12.00;4.70;;;;;;;;;;4251250;27;20047;-81
2021/12/07 04:34:49;;;;;;;12.80;4.78;;;;;;;;;;4232561;28;20051;-80
2021/12/07 04:36:50;;;;;;;10.48;4.88;;;;;;;;;;4231642;28;20051;-81
2021/12/07 04:38:54;;;;;;;11.68;4.90;;;;;;;;;;4251130;27;20054;-81
2021/12/07 04:40:56;;;;;;;12.02;4.50;;;;;;;;;;4232681;28;20079;-81
2021/12/07 04:42:58;;;;;;;10.15;4.72;;;;;;;;;;4233132;28;20044;-81
2021/12/07 04:45:04;;;;;;;12.23;4.82;;;;;;;;;;4250929;27;20528;-81
2021/12/07 04:47:17;;;;;;;9.18;4.10;;;;;;;;;;4250408;27;20051;-81
2021/12/07 04:58:24;;;;;;;9.32;4.85;;;;;;;;;;4250614;27;20122;-81
2021/12/07 05:00:27;;;;;;;9.40;4.38;;;;;;;;;;4231586;28;20056;-81
2021/12/07 05:02:29;;;;;;;10.50;4.55;;;;;;;;;;4250151;27;20386;-81
2021/12/07 05:04:34;;;;;;;8.32;3.55;;;;;;;;;;4237506;27;20067;-81
2021/12/07 05:06:41;;;;;;;9.13;3.78;;;;;;;;;;4248794;27;20094;-81
2021/12/07 05:08:46;;;;;;;10.18;4.18;;;;;;;;;;4249005;27;20051;-81
2021/12/07 05:15:24;;;;;;;10.50;4.72;;;;;;;;;;4232172;28;20356;-80
2021/12/07 05:24:30;;;;;;;9.88;4.47;;;;;;;;;;4250168;27;20131;-81
2021/12/07 05:38:15;;;;;;;9.98;4.07;;;;;;;;;;4216024;28;20488;-81
2021/12/07 05:40:19;;;;;;;9.45;3.63;;;;;;;;;;4215903;28;20047;-81
2021/12/07 05:42:23;;;;;;;10.23;4.03;;;;;;;;;;4214178;28;20044;-81
2021/12/07 05:44:24;;;;;;;9.88;4.10;;;;;;;;;;4214309;28;20458;-81
2021/12/07 05:46:25;;;;;;;10.15;4.03;;;;;;;;;;4215509;28;20075;-81
2021/12/07 05:48:26;;;;;;;8.90;4.05;;;;;;;;;;4214272;28;20409;-80
2021/12/07 05:50:29;;;;;;;11.15;3.60;;;;;;;;;;4214141;28;20539;-80
2021/12/07 05:52:31;;;;;;;10.90;3.55;;;;;;;;;;4213533;28;20484;-80
2021/12/07 05:54:32;;;;;;;7.82;3.65;;;;;;;;;;4213636;28;20442;-80
2021/12/07 05:56:34;;;;;;;11.10;3.65;;;;;;;;;;4214047;28;20055;-80
2021/12/07 05:58:35;;;;;;;9.35;3.47;;;;;;;;;;4214743;28;20105;-80
2021/12/07 06:00:39;;;;;;;9.60;3.88;;;;;;;;;;4213928;28;20048;-80
2021/12/07 06:02:42;;;;;;;10.27;3.55;;;;;;;;;;4197966;28;20045;-80
2021/12/07 06:04:43;;;;;;;9.35;2.80;;;;;;;;;;4221680;28;20468;-80
2021/12/07 06:06:46;;;;;;;7.88;2.97;;;;;;;;;;4231138;28;20075;-82
2021/12/07 06:08:47;;;;;;;10.13;3.15;;;;;;;;;;4217790;28;20556;-81
2021/12/07 06:10:49;;;;;;;10.68;3.08;;;;;;;;;;4224257;28;20082;-81
2021/12/07 06:12:50;;;;;;;10.98;3.67;;;;;;;;;;4231384;28;20105;-81
2021/12/07 06:14:55;;;;;;;8.95;3.13;;;;;;;;;;4197050;28;20477;-81
2021/12/07 06:16:58;;;;;;;9.55;2.95;;;;;;;;;;4223263;28;20499;-81
2021/12/07 06:19:00;;;;;;;6.53;2.70;;;;;;;;;;4232159;28;20131;-81
2021/12/07 06:21:01;;;;;;;7.95;2.97;;;;;;;;;;4227184;28;20108;-81
2021/12/07 06:23:03;;;;;;;7.57;2.35;;;;;;;;;;4197498;28;20048;-81
2021/12/07 06:25:05;;;;;;;7.90;2.20;;;;;;;;;;4213637;28;20048;-81
2021/12/07 06:27:06;;;;;;;7.15;2.72;;;;;;;;;;4215219;28;20041;-81
2021/12/07 06:29:07;;;;;;;7.38;2.40;;;;;;;;;;4225480;28;20458;-81
2021/12/07 06:31:09;;;;;;;4.65;2.10;;;;;;;;;;4248258;28;20054;-80
2021/12/07 06:33:12;;;;;;;9.63;2.42;;;;;;;;;;4252385;27;20032;-80
2021/12/07 06:35:13;;;;;;;4.43;1.98;;;;;;;;;;4258231;28;20054;-81
2021/12/07 06:37:15;;;;;;;7.10;2.40;;;;;;;;;;4257288;28;20050;-81
2021/12/07 06:39:18;;;;;;;7.47;2.80;;;;;;;;;;4256636;28;20122;-81
2021/12/07 06:41:19;;;;;;;9.43;2.33;;;;;;;;;;4254351;27;20099;-81
2021/12/07 06:43:22;;;;;;;9.30;3.10;;;;;;;;;;4261072;28;20103;-80
2021/12/07 06:45:26;;;;;;;12.40;2.60;;;;;;;;;;4242164;28;20085;-80
2021/12/07 06:47:28;;;;;;;7.50;3.20;;;;;;;;;;4258253;27;20479;-80
2021/12/07 06:49:30;;;;;;;7.75;2.50;;;;;;;;;;4233986;28;20504;-82
2021/12/07 06:51:31;;;;;;;8.13;2.83;;;;;;;;;;4230866;28;20044;-81
2021/12/07 06:53:36;;;;;;;7.97;2.88;;;;;;;;;;4247822;28;20514;-81
2021/12/07 06:55:39;;;;;;;9.57;2.90;;;;;;;;;;4247628;28;20039;-81
2021/12/07 06:57:40;;;;;;;9.10;2.72;;;;;;;;;;4230797;28;20590;-81
2021/12/07 06:59:42;;;;;;;5.55;2.47;;;;;;;;;;4247786;28;20059;-81
2021/12/07 07:01:44;;;;;;;7.75;2.50;;;;;;;;;;4247288;28;20046;-81
2021/12/07 07:03:51;;;;;;;7.95;2.50;;;;;;;;;;4229742;28;20048;-81
2021/12/07 07:05:52;;;;;;;8.57;2.58;;;;;;;;;;4230218;28;20036;-81
2021/12/07 07:07:53;;;;;;;13.15;3.15;;;;;;;;;;4230221;28;20078;-81
2021/12/07 07:09:55;;;;;;;10.13;3.38;;;;;;;;;;4232821;28;20470;-81
2021/12/07 07:11:57;;;;;;;6.65;2.65;;;;;;;;;;4246105;27;20047;-80
2021/12/07 07:13:58;;;;;;;8.55;2.88;;;;;;;;;;4239185;27;20118;-81
2021/12/07 07:16:00;;;;;;;7.78;2.33;;;;;;;;;;4247802;27;20047;-80
2021/12/07 07:18:02;;;;;;;11.40;2.85;;;;;;;;;;4250288;27;20122;-80
2021/12/07 07:20:04;;;;;;;5.63;2.50;;;;;;;;;;4251929;27;20050;-80
2021/12/07 07:22:05;;;;;;;7.78;2.58;;;;;;;;;;4234409;28;20043;-80
2021/12/07 07:24:06;;;;;;;9.95;2.70;;;;;;;;;;4232988;28;20503;-80
2021/12/07 07:26:07;;;;;;;9.43;3.00;;;;;;;;;;4233416;28;20511;-80
2021/12/07 07:28:09;;;;;;;12.55;2.70;;;;;;;;;;4234193;28;20047;-80
2021/12/07 07:30:11;;;;;;;4.45;2.15;;;;;;;;;;4242430;27;20059;-80
2021/12/07 07:32:12;;;;;;;7.97;2.80;;;;;;;;;;4232909;28;20048;-80
2021/12/07 07:34:16;;;;;;;6.22;2.67;;;;;;;;;;4232300;28;20384;-80
2021/12/07 07:36:20;;;;;;;9.82;2.78;;;;;;;;;;4251643;27;20050;-81
2021/12/07 07:38:21;;;;;;;8.10;2.58;;;;;;;;;;4232886;28;20047;-80
2021/12/07 07:40:23;;;;;;;9.73;2.92;;;;;;;;;;4232833;28;20051;-80
2021/12/07 07:42:24;;;;;;;8.85;2.78;;;;;;;;;;4216201;28;20145;-80
2021/12/07 07:44:25;;;;;;;6.88;2.80;;;;;;;;;;4232444;28;20039;-81
2021/12/07 07:46:27;;;;;;;7.38;2.53;;;;;;;;;;4234098;27;20439;-81
2021/12/07 07:48:29;;;;;;;12.05;2.65;;;;;;;;;;4249354;27;20055;-81
2021/12/07 07:50:30;;;;;;;10.68;2.40;;;;;;;;;;4247898;27;20069;-81
2021/12/07 07:52:31;;;;;;;9.57;2.72;;;;;;;;;;4215049;28;20519;-81
2021/12/07 07:54:32;;;;;;;7.57;2.08;;;;;;;;;;4249997;27;20122;-81
2021/12/07 07:56:36;;;;;;;6.63;2.25;;;;;;;;;;4232019;28;20039;-80
2021/12/07 07:58:37;;;;;;;9.90;2.17;;;;;;;;;;4215210;28;20055;-80
2021/12/07 08:00:39;;;;;;;5.40;2.58;;;;;;;;;;4231867;28;20055;-81
2021/12/07 08:02:40;;;;;;;8.43;2.47;;;;;;;;;;4232304;28;20058;-80
2021/12/07 08:04:41;;;;;;;11.27;2.95;;;;;;;;;;4214966;28;20516;-80
2021/12/07 08:06:46;;;;;;;8.30;2.75;;;;;;;;;;4250039;27;20128;-80
2021/12/07 08:08:48;;;;;;;5.75;2.55;;;;;;;;;;4249866;27;20047;-80
2021/12/07 08:10:50;;;;;;;7.38;2.47;;;;;;;;;;4250329;27;20071;-80
2021/12/07 08:12:51;;;;;;;10.98;2.70;;;;;;;;;;4249501;27;20118;-81
2021/12/07 08:14:53;;;;;;;11.05;2.88;;;;;;;;;;4249950;27;20043;-81
2021/12/07 08:16:55;;;;;;;7.10;2.97;;;;;;;;;;4259547;27;20509;-81
2021/12/07 08:18:57;;;;;;;5.35;2.67;;;;;;;;;;4267253;27;20046;-80
2021/12/07 08:20:58;;;;;;;12.07;2.90;;;;;;;;;;4245128;27;20136;-80
2021/12/07 08:23:04;;;;;;;8.98;3.10;;;;;;;;;;4230575;28;20043;-80
2021/12/07 08:25:05;;;;;;;12.77;3.08;;;;;;;;;;4214360;28;20055;-80
2021/12/07 08:27:07;;;;;;;11.32;3.08;;;;;;;;;;4249834;27;20043;-81
2021/12/07 08:29:08;;;;;;;12.65;2.70;;;;;;;;;;4249586;27;20057;-80
2021/12/07 08:31:10;;;;;;;7.18;2.75;;;;;;;;;;4230844;28;20499;-80
2021/12/07 08:33:12;;;;;;;8.02;2.30;;;;;;;;;;4248926;27;20088;-80
2021/12/07 08:35:16;;;;;;;8.75;3.17;;;;;;;;;;4249371;27;20475;-80
2021/12/07 08:37:20;;;;;;;7.05;2.65;;;;;;;;;;4231199;28;20044;-80
2021/12/07 08:39:22;;;;;;;7.40;2.42;;;;;;;;;;4255839;27;20039;-80
2021/12/07 08:41:23;;;;;;;8.88;2.45;;;;;;;;;;4249090;27;20050;-80
2021/12/07 08:43:26;;;;;;;12.20;2.67;;;;;;;;;;4250031;27;20099;-80
2021/12/07 08:45:27;;;;;;;6.18;2.88;;;;;;;;;;4249873;27;20100;-81
2021/12/07 08:47:30;;;;;;;7.20;2.95;;;;;;;;;;4213509;28;20145;-80
2021/12/07 08:49:32;;;;;;;10.13;2.50;;;;;;;;;;4214076;28;20044;-80
2021/12/07 08:51:33;;;;;;;8.30;2.88;;;;;;;;;;4231592;28;20043;-80
2021/12/07 08:53:39;;;;;;;7.88;2.50;;;;;;;;;;4249653;27;20607;-80
2021/12/07 09:00:21;;;;;;;7.60;2.50;;;;;;;;;;4267168;27;20425;-80
2021/12/07 09:02:24;;;;;;;6.30;2.40;;;;;;;;;;4247688;27;20139;-80
2021/12/07 09:04:26;;;;;;;10.43;2.53;;;;;;;;;;4232689;27;20139;-80
2021/12/07 09:06:28;;;;;;;9.68;2.67;;;;;;;;;;4216028;28;20047;-80
2021/12/07 09:08:29;;;;;;;6.32;2.58;;;;;;;;;;4246013;27;20058;-81
2021/12/07 09:10:31;;;;;;;6.35;2.53;;;;;;;;;;4259079;27;20038;-81
2021/12/07 09:12:33;;;;;;;9.45;2.72;;;;;;;;;;4248299;27;20122;-81
2021/12/07 09:14:35;;;;;;;5.43;2.03;;;;;;;;;;4227255;28;20400;-81
2021/12/07 09:16:37;;;;;;;9.32;1.80;;;;;;;;;;4253399;27;20046;-82
2021/12/07 09:18:39;;;;;;;4.82;2.00;;;;;;;;;;4247671;27;20074;-81
2021/12/07 09:20:40;;;;;;;7.70;2.28;;;;;;;;;;4249026;27;20070;-81
2021/12/07 09:22:43;;;;;;;7.78;1.90;;;;;;;;;;4264460;27;20051;-81
2021/12/07 09:24:45;;;;;;;10.13;2.75;;;;;;;;;;4230198;27;20055;-82
2021/12/07 09:26:46;;;;;;;7.65;2.20;;;;;;;;;;4248006;27;20164;-82
2021/12/07 09:28:47;;;;;;;9.48;2.67;;;;;;;;;;4244484;27;20103;-82
2021/12/07 09:30:53;;;;;;;7.60;1.95;;;;;;;;;;4263246;27;20058;-85
2021/12/07 09:32:54;;;;;;;4.43;2.35;;;;;;;;;;4246703;27;20549;-83
2021/12/07 09:34:56;;;;;;;5.93;1.95;;;;;;;;;;4229040;28;20058;-82
2021/12/07 09:36:57;;;;;;;4.07;1.55;;;;;;;;;;4262604;27;20175;-82
2021/12/07 09:38:58;;;;;;;6.15;2.33;;;;;;;;;;4264930;27;20073;-82
2021/12/07 09:41:00;;;;;;;10.98;2.00;;;;;;;;;;4236019;27;20073;-82
2021/12/07 09:43:01;;;;;;;4.25;1.60;;;;;;;;;;4229398;28;20054;-82
2021/12/07 09:45:03;;;;;;;4.22;1.60;;;;;;;;;;4247393;27;20055;-82
2021/12/07 09:47:05;;;;;;;6.53;1.63;;;;;;;;;;4246927;27;20067;-82
2021/12/07 09:49:07;;;;;;;9.82;1.73;;;;;;;;;;4229123;28;20047;-81
2021/12/07 09:51:16;;;;;;;4.32;1.58;;;;;;;;;;4229102;28;20469;-81
2021/12/07 09:53:19;;;;;;;7.50;1.83;;;;;;;;;;4228828;28;20051;-81
2021/12/07 09:55:21;;;;;;;8.02;1.90;;;;;;;;;;4228880;28;20445;-82
2021/12/07 09:57:22;;;;;;;7.65;1.65;;;;;;;;;;4229896;28;20122;-81
2021/12/07 09:59:23;;;;;;;4.90;1.45;;;;;;;;;;4212268;28;20174;-81
2021/12/07 10:01:25;;;;;;;10.40;1.75;;;;;;;;;;4229305;28;20051;-81
2021/12/07 10:03:27;;;;;;;11.68;2.30;;;;;;;;;;4247708;28;20047;-81
2021/12/07 10:05:30;;;;;;;5.10;1.70;;;;;;;;;;4228891;28;20071;-82
2021/12/07 10:07:31;;;;;;;9.10;1.85;;;;;;;;;;4227808;28;20039;-82
2021/12/07 10:09:32;;;;;;;5.93;1.65;;;;;;;;;;4228645;28;20046;-81
2021/12/07 10:11:34;;;;;;;6.63;1.65;;;;;;;;;;4247349;27;20040;-81
2021/12/07 10:13:35;;;;;;;10.52;2.05;;;;;;;;;;4247110;28;20046;-81
2021/12/07 10:15:37;;;;;;;4.88;1.77;;;;;;;;;;4228492;28;20043;-81
2021/12/07 10:17:38;;;;;;;4.43;1.45;;;;;;;;;;4228765;28;20158;-81
2021/12/07 10:19:43;;;;;;;8.02;2.00;;;;;;;;;;4228873;28;20051;-82
2021/12/07 10:21:58;;;;;;;5.18;1.58;;;;;;;;;;4257161;27;20424;-82
2021/12/07 10:24:07;;;;;;;8.50;1.90;;;;;;;;;;4235853;28;20063;-82
2021/12/07 10:26:13;;;;;;;6.47;1.73;;;;;;;;;;4247382;28;20039;-82
2021/12/07 10:28:25;;;;;;;11.68;1.85;;;;;;;;;;4228780;28;20147;-82
2021/12/07 10:30:27;;;;;;;6.50;1.85;;;;;;;;;;4228655;28;20052;-82
2021/12/07 10:32:28;;;;;;;4.60;1.45;;;;;;;;;;4247188;28;20469;-82
2021/12/07 10:34:32;;;;;;;7.00;1.77;;;;;;;;;;4211331;28;20101;-82
2021/12/07 10:36:35;;;;;;;7.28;1.63;;;;;;;;;;4211697;28;20087;-82
2021/12/07 10:38:37;;;;;;;8.93;1.75;;;;;;;;;;4246853;28;20091;-82
2021/12/07 10:40:57;;;;;;;4.32;1.80;;;;;;;;;;4228574;28;20048;-82
2021/12/07 10:42:58;;;;;;;10.90;1.77;;;;;;;;;;4228278;28;20047;-82
2021/12/07 10:45:06;;;;;;;9.02;1.70;;;;;;;;;;4228725;28;20473;-83
2021/12/07 10:47:12;;;;;;;5.45;1.42;;;;;;;;;;4230507;28;20157;-83
2021/12/07 10:49:19;;;;;;;13.10;2.15;;;;;;;;;;4232160;28;20046;-83
2021/12/07 10:51:20;;;;;;;9.65;1.77;;;;;;;;;;4250409;27;20039;-83
2021/12/07 10:53:21;;;;;;;7.40;2.22;;;;;;;;;;4231806;28;20047;-83
2021/12/07 10:55:24;;;;;;;7.18;2.28;;;;;;;;;;4231900;28;20040;-83
2021/12/07 10:57:33;;;;;;;4.95;1.95;;;;;;;;;;4249826;27;20070;-82
2021/12/07 10:59:35;;;;;;;10.82;2.58;;;;;;;;;;4249783;27;20047;-83
2021/12/07 11:01:38;;;;;;;8.40;1.83;;;;;;;;;;4250014;27;20127;-82
2021/12/07 11:03:39;;;;;;;7.28;1.60;;;;;;;;;;4250115;27;20122;-83
2021/12/07 11:05:44;;;;;;;7.57;1.52;;;;;;;;;;4250062;27;20483;-83
2021/12/07 11:07:45;;;;;;;8.32;1.83;;;;;;;;;;4249659;27;20171;-83
2021/12/07 11:09:57;;;;;;;3.55;1.33;;;;;;;;;;4231501;28;20040;-82
2021/12/07 11:12:07;;;;;;;5.47;1.48;;;;;;;;;;4231643;28;20124;-83
2021/12/07 11:14:09;;;;;;;7.75;2.00;;;;;;;;;;4214756;28;20052;-82
2021/12/07 11:16:13;;;;;;;6.30;2.45;;;;;;;;;;4252958;27;20464;-83
2021/12/07 11:18:14;;;;;;;8.70;1.58;;;;;;;;;;4266944;27;20090;-82
2021/12/07 11:20:15;;;;;;;4.90;1.60;;;;;;;;;;4248586;27;20043;-82
2021/12/07 11:22:18;;;;;;;6.25;1.40;;;;;;;;;;4251522;27;20039;-83
2021/12/07 11:24:20;;;;;;;4.72;1.67;;;;;;;;;;4262617;27;20042;-83
2021/12/07 11:30:51;;;;;;;5.82;1.60;;;;;;;;;;4248007;27;20055;-83
2021/12/07 11:32:56;;;;;;;6.38;2.13;;;;;;;;;;4248279;27;20097;-82
2021/12/07 11:35:07;;;;;;;2.70;1.75;;;;;;;;;;4247920;27;20411;-82
2021/12/07 11:37:09;;;;;;;4.90;1.70;;;;;;;;;;4266805;27;20125;-83
2021/12/07 11:39:19;;;;;;;10.98;2.95;;;;;;;;;;4266781;27;20060;-82
2021/12/07 11:41:33;;;;;;;6.85;1.60;;;;;;;;;;4230945;28;20110;-83
2021/12/07 11:43:34;;;;;;;7.68;1.70;;;;;;;;;;4266220;27;20091;-83
2021/12/07 11:45:35;;;;;;;6.55;1.80;;;;;;;;;;4248135;27;20107;-83
2021/12/07 11:47:39;;;;;;;8.15;1.95;;;;;;;;;;4247766;27;20054;-82
2021/12/07 11:49:40;;;;;;;6.70;1.95;;;;;;;;;;4266474;27;20070;-83
2021/12/07 11:51:42;;;;;;;3.58;1.08;;;;;;;;;;4266302;27;20054;-82
2021/12/07 11:53:43;;;;;;;5.15;1.27;;;;;;;;;;4247775;27;20044;-83
2021/12/07 11:55:47;;;;;;;6.22;1.92;;;;;;;;;;4266397;27;20038;-83
2021/12/07 11:57:48;;;;;;;7.20;2.30;;;;;;;;;;4247149;27;20549;-82
2021/12/07 11:59:49;;;;;;;3.67;1.50;;;;;;;;;;4247896;27;20047;-81
2021/12/07 12:01:51;;;;;;;6.15;1.42;;;;;;;;;;4266699;27;20137;-81
2021/12/07 12:03:52;;;;;;;5.65;1.38;;;;;;;;;;4266016;27;20038;-81
2021/12/07 12:05:54;;;;;;;8.02;2.25;;;;;;;;;;4247058;27;20486;-81
2021/12/07 12:07:56;;;;;;;6.50;1.50;;;;;;;;;;4230687;28;20131;-81
2021/12/07 12:09:57;;;;;;;6.93;1.88;;;;;;;;;;4263880;27;20101;-81
2021/12/07 12:12:17;;;;;;;8.82;1.88;;;;;;;;;;4230231;28;20058;-82
2021/12/07 12:14:39;;;;;;;7.05;1.60;;;;;;;;;;4230085;28;20487;-82
2021/12/07 12:16:43;;;;;;;8.13;1.55;;;;;;;;;;4229859;28;20586;-82
2021/12/07 12:18:49;;;;;;;8.10;1.73;;;;;;;;;;4212924;28;20052;-82
2021/12/07 12:21:03;;;;;;;7.90;1.92;;;;;;;;;;4232404;27;20058;-82
2021/12/07 12:23:10;;;;;;;9.15;2.83;;;;;;;;;;4244716;27;20043;-82
2021/12/07 12:25:12;;;;;;;8.80;1.48;;;;;;;;;;4248136;27;20099;-82
2021/12/07 12:27:17;;;;;;;7.88;2.05;;;;;;;;;;4229757;28;20407;-82
2021/12/07 12:29:21;;;;;;;10.18;1.92;;;;;;;;;;4230051;28;20047;-82
2021/12/07 12:31:42;;;;;;;6.00;2.00;;;;;;;;;;4212898;28;20121;-82
2021/12/07 12:33:49;;;;;;;4.93;1.27;;;;;;;;;;4248049;27;20437;-82
2021/12/07 12:35:52;;;;;;;7.25;1.45;;;;;;;;;;4213248;28;20082;-82
2021/12/07 12:37:53;;;;;;;7.80;1.40;;;;;;;;;;4230643;28;20043;-82
2021/12/07 12:39:56;;;;;;;9.23;1.63;;;;;;;;;;4248909;27;20064;-83
2021/12/07 12:42:00;;;;;;;5.20;1.52;;;;;;;;;;4248560;27;20049;-82
2021/12/07 12:44:09;;;;;;;8.60;1.42;;;;;;;;;;4248467;27;20099;-82
2021/12/07 12:46:13;;;;;;;8.60;1.38;;;;;;;;;;4213111;28;20043;-82
2021/12/07 12:48:20;;;;;;;4.93;1.27;;;;;;;;;;4229868;28;20044;-82
2021/12/07 12:50:23;;;;;;;5.07;1.30;;;;;;;;;;4229944;28;20111;-82
2021/12/07 12:52:51;;;;;;;6.72;1.60;;;;;;;;;;4230194;28;20412;-82
2021/12/07 12:54:52;;;;;;;6.32;1.00;;;;;;;;;;4225413;28;20058;-82
2021/12/07 12:57:07;;;;;;;6.32;1.23;;;;;;;;;;4230037;28;20051;-82
2021/12/07 12:59:09;;;;;;;8.85;1.70;;;;;;;;;;4229925;28;20133;-82
2021/12/07 13:01:21;;;;;;;9.30;2.00;;;;;;;;;;4230357;28;20092;-82
2021/12/07 13:03:23;;;;;;;10.50;1.73;;;;;;;;;;4247592;27;20039;-82
2021/12/07 13:05:34;;;;;;;14.20;1.70;;;;;;;;;;4229468;28;20094;-82
2021/12/07 13:07:35;;;;;;;9.88;1.90;;;;;;;;;;4229677;28;20050;-83
2021/12/07 13:09:36;;;;;;;9.75;1.65;;;;;;;;;;4229468;28;20042;-82
2021/12/07 13:11:41;;;;;;;6.65;1.25;;;;;;;;;;4248559;27;20043;-82
2021/12/07 13:13:48;;;;;;;9.57;1.75;;;;;;;;;;4230032;28;20567;-82
2021/12/07 13:15:49;;;;;;;7.75;1.48;;;;;;;;;;4229438;28;20044;-82
2021/12/07 13:17:50;;;;;;;5.47;1.50;;;;;;;;;;4247914;27;20074;-82
2021/12/07 13:20:10;;;;;;;7.65;1.80;;;;;;;;;;4229909;28;20043;-82
2021/12/07 13:22:17;;;;;;;6.07;1.30;;;;;;;;;;4243989;27;20118;-82
2021/12/07 13:24:30;;;;;;;10.50;1.58;;;;;;;;;;4234237;27;20154;-83
2021/12/07 13:26:38;;;;;;;7.95;1.42;;;;;;;;;;4229823;28;20051;-82
2021/12/07 13:28:39;;;;;;;4.03;1.50;;;;;;;;;;4247972;27;20043;-82
2021/12/07 13:30:49;;;;;;;7.68;1.23;;;;;;;;;;4230108;28;20055;-83
2021/12/07 13:33:11;;;;;;;8.13;2.05;;;;;;;;;;4230485;28;20059;-82
2021/12/07 13:35:12;;;;;;;8.60;1.50;;;;;;;;;;4214641;28;20039;-82
2021/12/07 13:37:14;;;;;;;4.82;1.63;;;;;;;;;;4231847;28;20147;-82
2021/12/07 13:39:16;;;;;;;8.05;1.80;;;;;;;;;;4240562;28;20034;-82
2021/12/07 13:41:19;;;;;;;6.15;1.48;;;;;;;;;;4261155;27;20538;-83
2021/12/07 13:43:31;;;;;;;5.70;1.75;;;;;;;;;;4264766;27;20023;-82
2021/12/07 13:45:32;;;;;;;5.72;1.65;;;;;;;;;;4263343;27;20087;-82
2021/12/07 13:47:34;;;;;;;6.15;1.45;;;;;;;;;;4279006;27;20038;-82
2021/12/07 13:49:35;;;;;;;7.57;2.10;;;;;;;;;;4256413;27;20051;-82
2021/12/07 13:51:38;;;;;;;9.88;2.10;;;;;;;;;;4250455;27;20053;-82
2021/12/07 13:53:41;;;;;;;9.02;1.98;;;;;;;;;;4264882;27;20042;-83
2021/12/07 13:55:44;;;;;;;11.60;2.40;;;;;;;;;;4246232;27;20078;-82
2021/12/07 13:57:48;;;;;;;8.93;1.98;;;;;;;;;;4264065;27;20101;-82